Etusivu
METAR-TAF:

METAR-TAF

Lentoasemat :

Calhoun County Airport

Port Lavaca, Texas, Yhdysvallat

Leveyspiiri: 28-39-14N, Pituuspiiri: 096-40-52W, korkeus merenpinnasta: 9 m

Tämänhetkinen sää

Tämä raportti tehtiin 34 minuuttia sitten, kello 18.15 UTC
Tuuli 10 kn etelästä/kaakosta puuskistuen 15 kn:hen
Lämpötila 33°C
Kosteus 71%
Ilmanpaine 1008 hPa
Näkyvyys: 11.3 km
Hajanaisia pilviä 3000 ft:n korkeudessa
Hajonneita pilviä 3800 ft:n korkeudessa

METAR: KPKV 261815Z AUTO 16010G15KT 7SM SCT030 BKN038 33/27 A2977 RMK AO2 T03300266

Aika: 13:49 (18:49 UTC)


TAF: puuttuu

Säähavainnot ja -ennusteet yli 4000 lentoasemalta (METAR- ja TAF-raportit).

Käytössä olevat sääasemat on merkitty karttaan keltaisilla ja punaisilla pisteillä.

Aseta hiiri pisteen päälle nähdäksesi sääaseman nimen.

Klikkaa sitten nähdäksesi säähavainnot ja -ennusteet.

Kartan vaihtaminen: klikkaa mustalla rastilla varustettuja vihreitä pisteitä, niin voit zoomata sisään; viivalla varustettua vihreää pistettä, niin voit zoomata ulos tai vihreitä nuolia, niin pääset viereisille kartoille.


METAR-TAF: